Time;durP1;ratioP1;P1;durP2;ratioP2;P2;SDS_P1;SDS_P2;PMS_P1;PMS_P2;Temp;Humidity;BMP_temperature;BMP_pressure;BME280_temperature;BME280_humidity;BME280_pressure;Samples;Min_cycle;Max_cycle;Signal;HPM_P1;HPM_P2
2023/05/21 00:00:27;;;;;;;5.25;4.25;;;;;;;16.70;54.05;101728.47;5015378;28;20468;-63
2023/05/21 00:02:52;;;;;;;6.03;4.15;;;;;;;16.66;54.05;101730.13;5032684;28;20492;-63
2023/05/21 00:05:18;;;;;;;6.93;4.30;;;;;;;16.76;53.78;101724.63;5018296;28;20026;-63
2023/05/21 00:07:44;;;;;;;6.00;4.63;;;;;;;16.75;53.82;101717.31;5010491;28;20174;-62
2023/05/21 00:10:10;;;;;;;5.43;4.70;;;;;;;16.73;53.95;101725.16;5018549;28;20029;-62
2023/05/21 00:12:35;;;;;;;6.32;5.00;;;;;;;16.75;53.92;101720.13;5032518;28;20036;-63
2023/05/21 00:15:01;;;;;;;6.22;4.70;;;;;;;16.78;53.64;101716.78;5033111;28;20045;-62
2023/05/21 00:17:27;;;;;;;6.82;4.70;;;;;;;16.73;53.79;101716.75;5025077;28;20026;-62
2023/05/21 00:19:53;;;;;;;8.38;4.40;;;;;;;16.68;53.90;101714.72;5014306;28;20026;-62
2023/05/21 00:22:19;;;;;;;5.53;4.63;;;;;;;16.77;53.67;101708.63;5012837;28;20026;-63
2023/05/21 00:24:44;;;;;;;7.28;5.03;;;;;;;16.75;53.66;101713.69;5014856;28;20481;-62
2023/05/21 00:27:10;;;;;;;7.53;6.75;;;;;;;16.65;54.09;101711.63;5024655;28;20026;-63
2023/05/21 00:29:36;;;;;;;12.68;10.77;;;;;;;16.65;54.04;101706.88;5012696;28;20481;-63
2023/05/21 00:32:01;;;;;;;15.20;12.27;;;;;;;16.70;54.09;101708.84;5013397;28;20033;-63
2023/05/21 00:34:28;;;;;;;16.40;13.68;;;;;;;16.61;54.09;101705.72;5013581;28;20087;-62
2023/05/21 00:36:54;;;;;;;17.60;11.65;;;;;;;16.68;53.89;101714.72;5014358;28;20049;-62
2023/05/21 00:39:19;;;;;;;13.02;9.50;;;;;;;16.76;53.76;101712.56;5017372;28;20025;-63
2023/05/21 00:41:45;;;;;;;9.13;8.13;;;;;;;16.72;53.79;101694.56;5019589;28;20029;-62
2023/05/21 00:44:12;;;;;;;8.57;6.85;;;;;;;16.69;54.06;101701.56;5024116;28;20377;-63
2023/05/21 00:46:38;;;;;;;8.27;5.97;;;;;;;16.66;54.01;101702.97;5032660;28;20029;-62
2023/05/21 00:49:04;;;;;;;7.15;5.60;;;;;;;16.63;54.00;101695.09;5012277;28;20421;-63
2023/05/21 00:51:30;;;;;;;5.72;5.10;;;;;;;16.69;54.00;101696.78;5023500;28;20040;-63
2023/05/21 00:53:56;;;;;;;5.32;4.80;;;;;;;16.70;54.05;101697.63;5031101;28;20036;-63
2023/05/21 00:56:23;;;;;;;6.75;5.25;;;;;;;16.57;54.33;101698.13;5012729;28;20034;-63
2023/05/21 00:58:58;;;;;;;7.40;5.13;;;;;;;16.56;54.29;101693.66;5010620;28;20481;-62
2023/05/21 01:01:26;;;;;;;6.80;4.97;;;;;;;16.57;54.27;101686.94;5015912;28;20033;-62
2023/05/21 01:03:56;;;;;;;6.35;4.82;;;;;;;16.58;54.29;101692.25;5012582;28;20022;-64
2023/05/21 01:06:22;;;;;;;4.93;4.38;;;;;;;16.62;54.30;101690.63;5013227;28;20374;-63
2023/05/21 01:08:50;;;;;;;7.78;4.90;;;;;;;16.63;54.13;101686.69;5016723;28;20071;-64
2023/05/21 01:11:17;;;;;;;5.00;4.13;;;;;;;16.48;54.79;101695.03;5024053;28;20470;-62
2023/05/21 01:13:44;;;;;;;5.30;4.70;;;;;;;16.51;54.54;101693.66;5018493;28;20091;-62
2023/05/21 01:16:12;;;;;;;6.13;4.53;;;;;;;16.45;54.81;101699.19;5018244;28;20045;-62
2023/05/21 01:18:37;;;;;;;6.20;4.60;;;;;;;16.47;54.76;101698.09;5022528;28;20075;-63
2023/05/21 01:21:03;;;;;;;6.25;4.57;;;;;;;16.45;54.49;101688.00;5030705;28;20060;-62
2023/05/21 01:23:29;;;;;;;11.02;5.28;;;;;;;16.38;54.98;101687.38;5030885;28;20029;-62
2023/05/21 01:25:54;;;;;;;5.22;4.63;;;;;;;16.44;54.87;101688.28;5031385;28;20086;-62
2023/05/21 01:28:20;;;;;;;5.72;5.03;;;;;;;16.39;55.00;101689.09;5030706;28;20378;-62
2023/05/21 01:30:46;;;;;;;6.47;4.85;;;;;;;16.42;55.05;101691.31;5024251;28;20025;-62
2023/05/21 01:33:19;;;;;;;8.73;4.30;;;;;;;16.39;55.05;101689.09;5013147;28;20473;-62
2023/05/21 01:36:01;;;;;;;6.60;4.53;;;;;;;16.33;55.24;101690.16;5012129;28;20041;-62
2023/05/21 01:38:30;;;;;;;;;;;;;;;16.56;53.71;101683.28;5017286;28;20033;-62
2023/05/21 01:41:02;;;;;;;4.95;4.55;;;;;;;16.31;55.23;101688.75;5032275;28;19917;-62
2023/05/21 01:43:31;;;;;;;9.05;5.25;;;;;;;16.24;55.64;101690.97;5031877;28;20017;-62
2023/05/21 01:45:58;;;;;;;6.30;4.55;;;;;;;16.18;55.96;101681.66;5031340;28;20055;-62
2023/05/21 01:48:26;;;;;;;5.78;4.90;;;;;;;16.12;55.87;101692.00;5020075;28;20350;-63
2023/05/21 01:50:54;;;;;;;7.68;4.97;;;;;;;16.17;55.74;101683.63;5021623;28;20040;-63
2023/05/21 01:53:19;;;;;;;6.70;4.72;;;;;;;16.16;55.92;101681.13;5023279;28;20034;-63
2023/05/21 01:55:45;;;;;;;6.13;4.88;;;;;;;16.21;55.68;101678.34;5011718;28;20041;-62
2023/05/21 01:58:11;;;;;;;8.82;5.05;;;;;;;16.22;55.90;101681.97;5011840;28;20128;-62
2023/05/21 02:00:38;;;;;;;5.53;4.95;;;;;;;16.21;55.85;101675.53;5014504;28;20079;-62
2023/05/21 02:03:04;;;;;;;9.18;4.88;;;;;;;16.20;55.92;101679.47;5028465;28;20029;-63
2023/05/21 02:05:29;;;;;;;5.50;4.30;;;;;;;16.17;55.94;101677.19;5019430;28;20036;-63
2023/05/21 02:07:55;;;;;;;5.72;4.82;;;;;;;16.12;56.09;101669.59;5018151;28;20726;-63
2023/05/21 02:10:21;;;;;;;5.05;4.55;;;;;;;16.10;56.30;101666.22;5011726;28;20469;-62
2023/05/21 02:12:46;;;;;;;4.75;4.30;;;;;;;16.15;55.98;101668.19;5011288;28;20037;-63
2023/05/21 02:15:16;;;;;;;6.70;4.57;;;;;;;16.15;56.08;101671.00;5011071;28;20617;-62
2023/05/21 02:17:43;;;;;;;7.97;4.93;;;;;;;16.14;56.28;101666.53;5013765;28;20026;-62
2023/05/21 02:20:12;;;;;;;11.15;4.75;;;;;;;16.14;56.50;101672.13;5011744;28;20030;-62
2023/05/21 02:22:42;;;;;;;5.65;4.53;;;;;;;16.09;56.57;101669.28;5012181;28;20033;-63
2023/05/21 02:25:09;;;;;;;5.13;4.22;;;;;;;16.10;56.32;101666.22;5015776;28;20057;-63
2023/05/21 02:27:35;;;;;;;5.85;4.70;;;;;;;16.16;56.16;101669.91;5011357;28;20021;-63
2023/05/21 02:30:02;;;;;;;5.78;4.90;;;;;;;16.12;56.34;101672.41;5011642;28;20026;-62
2023/05/21 02:32:27;;;;;;;5.15;4.25;;;;;;;16.12;56.44;101666.81;5010997;28;20030;-62
2023/05/21 02:34:52;;;;;;;5.57;4.65;;;;;;;16.10;56.43;101665.38;5015382;28;20033;-63
2023/05/21 02:37:18;;;;;;;6.07;4.50;;;;;;;16.08;56.74;101667.63;5029081;28;20099;-62
2023/05/21 02:39:44;;;;;;;5.43;4.47;;;;;;;16.09;56.72;101672.09;5016594;28;20075;-63
2023/05/21 02:42:10;;;;;;;6.40;4.80;;;;;;;16.10;56.59;101668.19;5011026;28;20038;-63
2023/05/21 02:44:35;;;;;;;7.78;5.22;;;;;;;16.13;56.90;101667.66;5011593;28;20022;-63
2023/05/21 02:47:00;;;;;;;6.85;4.68;;;;;;;16.08;57.02;101662.84;5011660;28;20473;-62
2023/05/21 02:49:25;;;;;;;5.63;4.63;;;;;;;16.12;56.73;101663.16;5026419;28;20029;-62
2023/05/21 02:51:51;;;;;;;6.38;4.68;;;;;;;16.16;56.55;101655.91;5031267;28;20041;-62
2023/05/21 02:54:16;;;;;;;6.95;5.00;;;;;;;16.17;56.58;101649.19;5023818;28;20385;-62
2023/05/21 02:56:41;;;;;;;6.35;5.25;;;;;;;16.16;56.80;101650.31;5009741;28;20469;-63
2023/05/21 02:59:06;;;;;;;7.75;5.05;;;;;;;16.12;56.86;101657.56;5011020;28;20041;-63
2023/05/21 03:01:32;;;;;;;5.10;4.60;;;;;;;16.13;56.99;101648.88;5021856;28;20040;-63
2023/05/21 03:03:57;;;;;;;4.93;4.43;;;;;;;16.12;57.01;101647.19;5025208;28;20433;-63
2023/05/21 03:06:22;;;;;;;5.70;5.10;;;;;;;16.17;57.32;101649.19;5030499;28;20038;-62
2023/05/21 03:08:47;;;;;;;6.35;5.35;;;;;;;16.05;57.49;101655.00;5027741;28;20043;-62
2023/05/21 03:11:13;;;;;;;8.25;5.15;;;;;;;16.03;57.43;101645.16;5011662;28;20092;-62
2023/05/21 03:13:38;;;;;;;6.40;5.80;;;;;;;16.02;57.57;101647.13;5010845;28;20116;-62
2023/05/21 03:16:04;;;;;;;6.05;5.15;;;;;;;16.05;57.54;101646.59;5010530;28;20096;-62
2023/05/21 03:18:29;;;;;;;7.93;5.55;;;;;;;16.07;57.55;101637.91;5017912;28;20044;-62
2023/05/21 03:20:57;;;;;;;5.20;4.70;;;;;;;16.04;57.84;101638.47;5030401;28;20025;-62
2023/05/21 03:23:22;;;;;;;7.25;5.07;;;;;;;16.07;57.76;101633.19;5030072;28;20053;-63
2023/05/21 03:25:48;;;;;;;5.65;4.90;;;;;;;16.04;57.38;101636.50;5029775;28;20818;-62
2023/05/21 03:28:13;;;;;;;6.90;4.85;;;;;;;16.01;57.92;101634.25;5021532;28;20033;-62
2023/05/21 03:30:38;;;;;;;7.28;5.53;;;;;;;16.03;57.91;101634.81;5029236;28;20034;-62
2023/05/21 03:33:05;;;;;;;6.03;5.43;;;;;;;16.04;57.88;101636.50;5027326;28;20574;-63
2023/05/21 03:35:30;;;;;;;5.05;4.65;;;;;;;16.03;57.94;101633.97;5030616;28;20033;-62
2023/05/21 03:37:55;;;;;;;6.30;5.70;;;;;;;15.97;58.09;101641.50;5021650;28;20575;-63
2023/05/21 03:40:21;;;;;;;6.57;5.50;;;;;;;15.99;58.02;101635.63;5022934;28;20056;-62
2023/05/21 03:42:46;;;;;;;6.13;5.45;;;;;;;15.98;58.46;101634.78;5029726;28;20032;-62
2023/05/21 03:45:12;;;;;;;6.20;5.57;;;;;;;16.00;58.27;101642.94;5025567;28;20099;-62
2023/05/21 03:47:37;;;;;;;6.32;5.53;;;;;;;16.01;58.11;101641.81;5009669;28;20080;-63
2023/05/21 03:50:04;;;;;;;7.45;6.07;;;;;;;15.99;58.38;101635.63;5012514;28;20037;-63
2023/05/21 03:52:29;;;;;;;7.03;5.57;;;;;;;15.92;58.66;101636.72;5026682;28;20041;-62
2023/05/21 03:54:55;;;;;;;6.60;5.68;;;;;;;15.95;58.71;101641.78;5029797;28;20215;-62
2023/05/21 03:57:20;;;;;;;6.05;5.45;;;;;;;15.91;58.84;101634.16;5014789;28;20394;-63
2023/05/21 03:59:45;;;;;;;8.00;5.97;;;;;;;15.94;58.91;101628.88;5010133;28;20040;-62
2023/05/21 04:02:10;;;;;;;9.10;5.55;;;;;;;15.97;58.81;101632.25;5014555;28;20389;-63
2023/05/21 04:04:36;;;;;;;7.45;5.80;;;;;;;15.95;58.79;101636.19;5007548;28;20084;-62
2023/05/21 04:07:03;;;;;;;8.05;5.93;;;;;;;16.00;58.74;101638.16;5013794;28;20473;-62
2023/05/21 04:09:28;;;;;;;8.07;5.60;;;;;;;15.94;58.93;101640.06;5031180;28;20033;-62
2023/05/21 04:11:54;;;;;;;7.00;5.68;;;;;;;15.95;59.06;101636.19;5033773;28;20116;-63
2023/05/21 04:14:20;;;;;;;7.85;5.50;;;;;;;15.90;59.19;101638.09;5031488;28;20030;-63
2023/05/21 04:16:47;;;;;;;5.93;5.32;;;;;;;15.88;59.49;101634.72;5031666;28;20076;-62
2023/05/21 04:19:13;;;;;;;7.28;6.10;;;;;;;15.80;59.52;101641.69;5033533;28;20381;-62
2023/05/21 04:21:39;;;;;;;9.05;5.70;;;;;;;15.81;59.69;101640.56;5017054;28;20021;-62
2023/05/21 04:24:04;;;;;;;7.45;5.82;;;;;;;15.81;59.46;101634.13;5014144;28;20104;-62
2023/05/21 04:26:32;;;;;;;6.47;5.88;;;;;;;15.83;59.59;101643.91;5014095;28;20030;-63
2023/05/21 04:28:58;;;;;;;8.90;6.30;;;;;;;15.80;59.66;101638.00;5032428;28;20496;-62
2023/05/21 04:31:23;;;;;;;8.93;6.00;;;;;;;15.78;59.71;101643.03;5016429;28;20038;-62
2023/05/21 04:33:49;;;;;;;7.22;5.80;;;;;;;15.75;59.78;101640.78;5013304;28;20108;-62
2023/05/21 04:36:16;;;;;;;7.38;5.35;;;;;;;15.79;59.84;101642.75;5012120;28;20409;-62
2023/05/21 04:38:41;;;;;;;7.32;5.38;;;;;;;15.77;59.92;101644.16;5013610;28;20034;-62
2023/05/21 04:41:09;;;;;;;6.63;5.72;;;;;;;15.76;60.09;101651.72;5015063;28;20408;-63
2023/05/21 04:43:35;;;;;;;7.35;6.05;;;;;;;15.81;59.86;101648.13;5030014;28;20040;-62
2023/05/21 04:46:01;;;;;;;8.90;5.97;;;;;;;15.74;60.24;101639.94;5026655;28;20033;-63
2023/05/21 04:48:27;;;;;;;7.20;5.82;;;;;;;15.80;60.19;101643.59;5031660;28;20535;-62
2023/05/21 04:50:53;;;;;;;6.95;6.03;;;;;;;15.77;60.21;101645.00;5030022;28;20096;-63
2023/05/21 04:53:18;;;;;;;7.28;6.20;;;;;;;15.82;59.88;101647.84;5030662;28;20033;-62
2023/05/21 04:55:43;;;;;;;7.18;6.22;;;;;;;15.75;60.48;101649.16;5030578;28;20029;-63
2023/05/21 04:58:12;;;;;;;9.27;6.57;;;;;;;15.76;60.49;101648.06;5025308;28;20104;-64
2023/05/21 05:00:39;;;;;;;7.97;6.53;;;;;;;15.73;60.61;101649.44;5012769;28;20025;-63
2023/05/21 05:03:04;;;;;;;8.70;5.95;;;;;;;15.70;60.87;101650.81;5012063;28;20092;-63
2023/05/21 05:05:29;;;;;;;6.70;6.00;;;;;;;15.70;60.73;101647.19;5012504;28;20026;-63
2023/05/21 05:07:56;;;;;;;7.10;6.10;;;;;;;15.70;60.74;101656.41;5012759;28;20056;-63
2023/05/21 05:10:21;;;;;;;7.10;6.30;;;;;;;15.76;60.84;101656.44;5015149;28;20109;-63
2023/05/21 05:12:47;;;;;;;7.35;6.57;;;;;;;15.77;60.94;101650.59;5011792;28;20499;-62
2023/05/21 05:15:12;;;;;;;7.88;6.88;;;;;;;15.76;60.84;101650.84;5012997;28;20066;-62
2023/05/21 05:17:38;;;;;;;10.32;6.43;;;;;;;15.73;60.83;101646.66;5027993;28;20052;-62
2023/05/21 05:20:05;;;;;;;7.85;6.50;;;;;;;15.81;60.57;101643.34;5022585;28;20026;-62
2023/05/21 05:22:30;;;;;;;9.10;6.32;;;;;;;15.81;60.50;101640.56;5023098;28;20765;-62
2023/05/21 05:24:56;;;;;;;7.97;6.78;;;;;;;15.83;60.67;101646.72;5018421;28;20034;-62
2023/05/21 05:27:21;;;;;;;8.73;7.20;;;;;;;15.81;60.83;101645.31;5012463;28;20164;-62
2023/05/21 05:29:46;;;;;;;10.95;6.90;;;;;;;15.81;60.81;101646.16;5012303;28;20033;-63
2023/05/21 05:32:12;;;;;;;9.40;6.45;;;;;;;15.83;60.87;101646.72;5025102;28;20030;-62
2023/05/21 05:34:37;;;;;;;8.60;6.95;;;;;;;15.82;61.02;101645.03;5031955;28;20044;-63
2023/05/21 05:37:03;;;;;;;8.30;7.05;;;;;;;15.78;61.20;101652.28;5018594;28;20117;-62
2023/05/21 05:39:28;;;;;;;7.80;7.00;;;;;;;15.81;61.19;101650.91;5014556;28;20389;-62
2023/05/21 05:41:53;;;;;;;7.30;6.60;;;;;;;15.83;61.22;101654.28;5031950;28;20030;-62
2023/05/21 05:44:19;;;;;;;9.32;7.60;;;;;;;15.86;61.00;101643.38;5031160;28;20032;-62
2023/05/21 05:46:44;;;;;;;7.40;6.63;;;;;;;15.89;61.31;101653.22;5022329;28;20083;-63
2023/05/21 05:49:09;;;;;;;7.75;6.90;;;;;;;15.85;61.08;101647.31;5029042;28;20481;-62
2023/05/21 05:51:36;;;;;;;10.15;6.78;;;;;;;15.92;60.77;101645.13;5021206;28;20044;-62
2023/05/21 05:54:01;;;;;;;7.75;6.63;;;;;;;15.91;61.17;101648.16;5011237;28;20030;-62
2023/05/21 05:56:26;;;;;;;12.40;7.40;;;;;;;15.92;61.27;101652.69;5014994;28;20030;-63
2023/05/21 05:58:51;;;;;;;8.23;7.03;;;;;;;15.95;61.27;101636.19;5010712;28;20038;-63
2023/05/21 06:01:17;;;;;;;10.15;7.32;;;;;;;15.95;61.00;101644.59;5021501;28;20029;-62
2023/05/21 06:03:43;;;;;;;9.75;6.93;;;;;;;16.02;60.99;101644.31;5031242;28;20485;-63
2023/05/21 06:06:09;;;;;;;8.75;7.32;;;;;;;15.99;61.22;101652.41;5028881;28;20126;-62
2023/05/21 06:08:34;;;;;;;8.15;7.25;;;;;;;16.04;61.31;101656.13;5030924;28;20022;-63
2023/05/21 06:11:00;;;;;;;8.68;7.47;;;;;;;16.06;61.26;101644.63;5029224;28;20439;-62
2023/05/21 06:13:25;;;;;;;8.63;7.28;;;;;;;16.05;61.19;101646.59;5025656;28;20041;-62
2023/05/21 06:15:51;;;;;;;8.43;7.63;;;;;;;16.05;61.57;101651.34;5011952;28;20079;-63
2023/05/21 06:18:17;;;;;;;8.60;7.47;;;;;;;16.10;61.33;101643.81;5011246;28;20038;-62
2023/05/21 06:20:42;;;;;;;8.50;7.60;;;;;;;16.15;61.22;101646.66;5012958;28;20030;-63
2023/05/21 06:23:08;;;;;;;10.38;7.50;;;;;;;16.22;60.88;101653.97;5010770;28;20034;-62
2023/05/21 06:25:33;;;;;;;9.68;7.32;;;;;;;16.27;61.26;101654.84;5011512;28;20069;-62
2023/05/21 06:27:59;;;;;;;9.15;7.60;;;;;;;16.31;61.01;101644.78;5010604;28;20030;-62
2023/05/21 06:30:24;;;;;;;9.27;7.75;;;;;;;16.33;60.89;101650.09;5011846;28;20130;-62
2023/05/21 06:32:49;;;;;;;9.50;8.18;;;;;;;16.38;61.15;101655.72;5010320;28;20029;-62
2023/05/21 06:35:15;;;;;;;9.05;8.05;;;;;;;16.43;60.94;101652.97;5012784;28;20033;-62
2023/05/21 06:37:41;;;;;;;8.63;7.47;;;;;;;16.49;60.83;101651.03;5011234;28;20817;-62
2023/05/21 06:40:07;;;;;;;8.55;7.75;;;;;;;16.56;60.56;101651.63;5011784;28;20037;-62
2023/05/21 06:42:33;;;;;;;8.77;7.70;;;;;;;16.59;60.67;101645.47;5010627;28;20100;-62
2023/05/21 06:44:58;;;;;;;9.05;7.65;;;;;;;16.57;60.65;101647.69;5011619;28;20026;-62
2023/05/21 06:47:23;;;;;;;9.15;7.72;;;;;;;16.61;60.54;101646.03;5030620;28;20477;-62
2023/05/21 06:49:49;;;;;;;10.13;8.15;;;;;;;16.68;60.38;101643.81;5024932;28;20064;-63
2023/05/21 06:52:14;;;;;;;11.02;8.23;;;;;;;16.66;60.62;101648.84;5008722;28;21447;-62
2023/05/21 06:54:39;;;;;;;9.10;7.90;;;;;;;16.75;60.85;101640.78;5010428;28;20044;-61
2023/05/21 06:57:04;;;;;;;10.23;8.30;;;;;;;16.80;60.80;101644.44;5006221;28;20045;-63
2023/05/21 06:59:30;;;;;;;9.75;8.75;;;;;;;16.84;60.87;101648.38;5010607;28;20040;-62
2023/05/21 07:01:55;;;;;;;8.13;7.32;;;;;;;16.89;60.56;101636.34;5027572;28;20025;-62
2023/05/21 07:04:21;;;;;;;9.98;8.75;;;;;;;16.91;60.79;101632.16;5022812;28;20025;-62
2023/05/21 07:06:47;;;;;;;10.35;8.57;;;;;;;16.93;60.61;101629.03;5030408;28;20025;-62
2023/05/21 07:09:12;;;;;;;10.30;8.45;;;;;;;16.97;60.07;101634.94;5014348;28;20480;-62
2023/05/21 07:11:38;;;;;;;11.60;8.77;;;;;;;16.97;60.64;101629.34;5021898;28;20041;-62
2023/05/21 07:14:03;;;;;;;9.07;7.95;;;;;;;17.03;60.57;101631.06;5016660;28;20105;-62
2023/05/21 07:16:28;;;;;;;10.50;9.40;;;;;;;17.11;60.31;101620.13;5019331;28;20505;-62
2023/05/21 07:18:54;;;;;;;9.98;8.27;;;;;;;17.19;60.35;101629.94;5013735;28;20038;-62
2023/05/21 07:21:19;;;;;;;9.55;8.57;;;;;;;17.20;60.16;101622.38;5016534;28;20547;-62
2023/05/21 07:23:45;;;;;;;10.02;8.32;;;;;;;17.26;60.15;101613.69;5018189;28;20038;-62
2023/05/21 07:26:10;;;;;;;9.73;8.02;;;;;;;17.36;60.74;101621.25;5008241;28;20085;-62
2023/05/21 07:28:36;;;;;;;10.23;8.00;;;;;;;17.43;60.03;101619.00;5012002;28;20029;-62
2023/05/21 07:31:01;;;;;;;11.00;9.00;;;;;;;17.47;59.84;101619.28;5024554;28;20048;-62
2023/05/21 07:33:27;;;;;;;9.88;8.68;;;;;;;17.51;59.62;101615.66;5008807;28;20029;-62
2023/05/21 07:35:52;;;;;;;12.85;9.10;;;;;;;17.57;59.52;101616.50;5017567;28;20037;-62
2023/05/21 07:38:17;;;;;;;9.80;8.80;;;;;;;17.59;59.34;101620.69;5012555;28;20055;-61
2023/05/21 07:40:43;;;;;;;10.65;8.52;;;;;;;17.62;59.26;101619.28;5023234;28;20366;-62
2023/05/21 07:43:08;;;;;;;10.63;8.68;;;;;;;17.65;59.07;101625.19;5017088;28;20030;-63
2023/05/21 07:45:33;;;;;;;10.98;8.52;;;;;;;17.69;59.01;101613.41;5012571;28;20040;-64
2023/05/21 07:47:58;;;;;;;11.02;9.40;;;;;;;17.76;59.05;101620.41;5012935;28;20065;-63
2023/05/21 07:50:24;;;;;;;11.50;9.48;;;;;;;17.82;58.83;101610.88;5017967;28;20038;-63
2023/05/21 07:52:50;;;;;;;11.38;8.77;;;;;;;17.86;58.75;101606.38;5026355;28;20060;-63
2023/05/21 07:55:15;;;;;;;11.77;9.27;;;;;;;17.94;58.80;101612.53;5009383;28;20109;-63
2023/05/21 07:57:40;;;;;;;10.00;8.98;;;;;;;18.01;58.88;101615.91;5017171;28;20080;-63
2023/05/21 08:00:12;;;;;;;9.57;8.60;;;;;;;18.08;58.80;101616.44;5013195;28;20034;-63
2023/05/21 08:02:38;;;;;;;10.15;8.93;;;;;;;18.13;58.55;101619.25;5001220;28;20042;-64
2023/05/21 08:05:04;;;;;;;10.38;9.23;;;;;;;18.19;58.66;101622.84;5011498;28;20113;-64
2023/05/21 08:07:30;;;;;;;10.85;9.32;;;;;;;18.22;58.11;101614.69;5016271;28;20029;-62
2023/05/21 08:09:56;;;;;;;10.38;9.27;;;;;;;18.24;58.94;101615.28;5018413;28;20029;-64
2023/05/21 08:12:21;;;;;;;10.23;9.18;;;;;;;18.28;59.34;101605.13;5021005;28;20545;-64
2023/05/21 08:14:46;;;;;;;10.88;9.73;;;;;;;18.33;58.38;101607.91;5013641;28;20054;-64
2023/05/21 08:17:12;;;;;;;12.75;9.93;;;;;;;18.43;58.40;101617.44;5021826;28;20033;-64
2023/05/21 08:19:37;;;;;;;11.98;9.35;;;;;;;18.45;57.98;101618.84;5014965;28;20030;-63
2023/05/21 08:22:05;;;;;;;15.85;9.85;;;;;;;18.49;58.17;101610.66;5033594;28;20470;-63
2023/05/21 08:24:31;;;;;;;12.57;10.32;;;;;;;18.55;58.06;101617.94;5013505;28;20045;-62
2023/05/21 08:26:57;;;;;;;10.20;9.05;;;;;;;18.59;58.20;101610.63;5026301;28;20112;-62
2023/05/21 08:29:22;;;;;;;11.68;9.95;;;;;;;18.65;59.15;101598.22;5017569;28;20049;-62
2023/05/21 08:31:47;;;;;;;11.13;9.70;;;;;;;18.69;57.89;101604.94;5013428;28;20030;-62
2023/05/21 08:34:13;;;;;;;9.90;9.00;;;;;;;18.78;57.81;101594.78;5021561;28;20042;-63
2023/05/21 08:36:41;;;;;;;12.30;9.82;;;;;;;18.88;58.26;101596.72;5012366;28;20041;-63
2023/05/21 08:39:07;;;;;;;10.65;9.55;;;;;;;18.96;57.45;101595.25;5021590;28;20022;-62
2023/05/21 08:41:34;;;;;;;11.15;9.95;;;;;;;19.03;57.68;101592.97;5021803;28;20096;-63
2023/05/21 08:44:01;;;;;;;11.43;10.15;;;;;;;19.06;57.37;101597.97;5020899;28;20032;-62
2023/05/21 08:46:33;;;;;;;11.90;10.60;;;;;;;19.10;57.10;101596.28;5008258;28;20041;-63
2023/05/21 08:49:00;;;;;;;12.93;10.40;;;;;;;19.18;57.14;101584.41;5016616;28;20029;-64
2023/05/21 08:51:25;;;;;;;11.43;8.27;;;;;;;19.23;56.28;101589.16;5031174;28;20110;-64
2023/05/21 08:53:51;;;;;;;15.98;11.32;;;;;;;19.31;57.06;101591.34;5024731;28;20084;-64
2023/05/21 08:56:17;;;;;;;11.50;9.80;;;;;;;19.38;57.09;101586.22;5028493;28;20037;-64
2023/05/21 08:58:45;;;;;;;14.63;10.23;;;;;;;19.42;57.10;101590.13;5021013;28;20391;-65
2023/05/21 09:01:11;;;;;;;11.98;10.45;;;;;;;19.50;56.50;101581.03;5023305;28;20054;-65
2023/05/21 09:03:39;;;;;;;12.98;10.25;;;;;;;19.53;56.38;101585.22;5027413;28;20116;-65
2023/05/21 09:06:05;;;;;;;15.25;9.85;;;;;;;19.55;56.34;101578.16;5019398;28;20033;-65
2023/05/21 09:08:33;;;;;;;12.15;10.40;;;;;;;19.60;56.22;101580.09;5012342;28;20139;-64
2023/05/21 09:11:02;;;;;;;11.10;9.93;;;;;;;19.67;56.48;101582.59;5021129;28;20022;-64
2023/05/21 09:13:27;;;;;;;11.45;10.20;;;;;;;19.70;56.31;101584.81;5011623;28;20394;-63
2023/05/21 09:15:53;;;;;;;11.90;10.55;;;;;;;19.73;56.07;101590.72;5008984;28;20054;-62
2023/05/21 09:18:18;;;;;;;11.32;9.85;;;;;;;19.74;55.98;101580.28;5008620;28;20034;-64
2023/05/21 09:20:44;;;;;;;12.18;9.98;;;;;;;19.72;56.30;101588.16;5027593;28;20036;-63
2023/05/21 09:23:15;;;;;;;11.38;9.73;;;;;;;19.76;56.70;101590.09;5018244;28;20040;-64
2023/05/21 09:25:40;;;;;;;12.65;10.40;;;;;;;19.74;56.42;101589.56;5019712;28;20038;-62
2023/05/21 09:28:13;;;;;;;12.88;10.10;;;;;;;19.73;56.61;101590.72;5017317;28;20026;-64
2023/05/21 09:30:46;;;;;;;13.60;10.18;;;;;;;19.80;56.47;101591.19;5015292;28;20136;-64
2023/05/21 09:33:23;;;;;;;11.68;10.07;;;;;;;19.80;56.30;101594.00;5018599;28;20037;-61
2023/05/21 09:35:49;;;;;;;11.35;9.98;;;;;;;19.91;56.26;101591.09;5020745;28;20091;-61
2023/05/21 09:38:15;;;;;;;12.20;8.85;;;;;;;19.94;56.01;101596.97;5019984;28;20478;-62
2023/05/21 09:40:47;;;;;;;10.43;8.70;;;;;;;19.98;55.75;101583.13;5012001;28;20038;-63
2023/05/21 09:43:14;;;;;;;12.68;10.60;;;;;;;19.99;55.93;101576.34;5011841;28;20033;-63
2023/05/21 09:45:50;;;;;;;13.55;9.68;;;;;;;20.07;56.44;101570.03;5011947;28;20029;-63
2023/05/21 09:48:15;;;;;;;11.25;10.13;;;;;;;20.13;57.27;101577.31;5014351;28;20060;-63
2023/05/21 09:50:40;;;;;;;10.73;9.45;;;;;;;20.22;56.48;101574.66;5017678;28;20061;-64
2023/05/21 09:53:11;;;;;;;15.00;11.23;;;;;;;20.20;55.93;101582.56;5016770;28;20129;-63
2023/05/21 09:55:36;;;;;;;11.30;10.18;;;;;;;20.30;56.28;101576.81;5022261;28;20087;-64
2023/05/21 09:58:03;;;;;;;12.90;10.07;;;;;;;20.30;55.47;101569.19;5022419;28;20030;-63
2023/05/21 10:00:29;;;;;;;12.68;10.77;;;;;;;20.31;55.91;101573.69;5022863;28;20041;-63
2023/05/21 10:03:04;;;;;;;12.50;10.05;;;;;;;20.39;55.89;101575.00;5029830;28;20030;-63
2023/05/21 10:05:30;;;;;;;15.45;10.60;;;;;;;20.49;56.58;101566.44;5013924;28;20018;-62
2023/05/21 10:07:58;;;;;;;13.63;11.15;;;;;;;20.52;55.60;101567.84;5015321;28;20034;-63
2023/05/21 10:10:25;;;;;;;12.82;10.25;;;;;;;20.56;55.93;101564.09;5014227;28;20069;-63
2023/05/21 10:12:56;;;;;;;11.75;10.00;;;;;;;20.61;55.03;101563.19;5011798;28;20034;-63
2023/05/21 10:15:24;;;;;;;12.52;11.32;;;;;;;20.66;55.62;101550.97;5011306;28;20053;-63
2023/05/21 10:17:51;;;;;;;13.88;11.40;;;;;;;20.71;55.24;101545.25;5030718;28;20025;-63
2023/05/21 10:20:16;;;;;;;12.48;11.18;;;;;;;20.73;55.57;101551.44;5030422;28;20116;-63
2023/05/21 10:22:43;;;;;;;15.32;11.07;;;;;;;20.80;54.57;101551.91;5030840;28;20036;-63
2023/05/21 10:25:09;;;;;;;11.38;10.27;;;;;;;20.81;54.67;101543.13;5031326;28;20113;-63
2023/05/21 10:27:35;;;;;;;13.00;11.70;;;;;;;20.82;54.56;101544.78;5016649;28;20057;-63
2023/05/21 10:30:01;;;;;;;12.43;10.23;;;;;;;20.93;55.05;101544.66;5010422;28;20026;-63
2023/05/21 10:32:26;;;;;;;12.82;11.50;;;;;;;20.93;54.70;101545.47;5011662;28;20068;-65
2023/05/21 10:34:53;;;;;;;13.05;11.10;;;;;;;21.02;54.84;101542.81;5019743;28;20079;-62
2023/05/21 10:37:21;;;;;;;13.50;12.13;;;;;;;21.07;54.17;101526.63;5010395;28;20412;-63
2023/05/21 10:39:48;;;;;;;13.65;12.18;;;;;;;21.10;54.46;101525.16;5020293;28;20048;-63
2023/05/21 10:42:22;;;;;;;13.95;11.75;;;;;;;21.10;54.32;101527.97;5013691;28;20140;-62
2023/05/21 10:45:03;;;;;;;13.38;11.93;;;;;;;21.08;54.17;101527.47;5012901;28;20076;-62
2023/05/21 10:47:44;;;;;;;14.82;11.05;;;;;;;21.07;54.06;101525.81;5012112;28;20033;-63
2023/05/21 10:50:46;;;;;;;16.52;12.18;;;;;;;21.13;54.16;101527.38;5014357;28;20034;-63
2023/05/21 10:53:21;;;;;;;13.32;11.93;;;;;;;21.20;54.14;101519.34;5020265;28;20052;-62
2023/05/21 10:56:01;;;;;;;13.93;11.38;;;;;;;21.31;54.15;101514.38;5010545;28;20025;-63
2023/05/21 10:58:54;;;;;;;15.02;12.38;;;;;;;21.32;54.00;101514.09;5010518;28;20033;-63
2023/05/21 11:01:20;;;;;;;14.77;12.23;;;;;;;21.33;53.79;101507.28;5011048;28;20025;-63
2023/05/21 11:03:47;;;;;;;17.83;12.75;;;;;;;21.40;53.72;101500.41;5009822;28;20493;-64
2023/05/21 11:06:22;;;;;;;12.95;10.82;;;;;;;21.48;53.73;101502.50;5011076;28;20037;-64
2023/05/21 11:08:52;;;;;;;14.82;12.20;;;;;;;21.56;53.27;101505.44;5009752;28;20030;-64
2023/05/21 11:11:57;;;;;;;14.70;11.88;;;;;;;21.61;53.41;101489.56;5010646;28;20385;-63
2023/05/21 11:14:27;;;;;;;18.98;14.75;;;;;;;21.66;52.71;101484.66;5010561;28;20112;-63
2023/05/21 11:16:53;;;;;;;15.25;12.70;;;;;;;21.73;53.19;101489.88;5009642;28;20033;-63
2023/05/21 11:19:19;;;;;;;15.07;12.45;;;;;;;21.81;54.04;101483.50;5011041;28;20034;-64